sensor_id;sensor_type;location;lat;lon;timestamp;pressure;altitude;pressure_sealevel;temperature;humidity
42297;BME280;72430;47.456;19.016;2023-12-22T00:01:12;98020.03;;;7.23;88.08
42297;BME280;72430;47.456;19.016;2023-12-22T00:04:17;98008.81;;;7.28;87.60
42297;BME280;72430;47.456;19.016;2023-12-22T00:07:19;98008.53;;;7.14;88.53
42297;BME280;72430;47.456;19.016;2023-12-22T00:10:22;98032.34;;;7.32;88.05
42297;BME280;72430;47.456;19.016;2023-12-22T00:13:24;98018.97;;;7.32;87.67
42297;BME280;72430;47.456;19.016;2023-12-22T00:16:25;98022.81;;;7.30;87.92
42297;BME280;72430;47.456;19.016;2023-12-22T00:19:27;98042.09;;;7.25;88.20
42297;BME280;72430;47.456;19.016;2023-12-22T00:22:29;98042.09;;;7.25;88.52
42297;BME280;72430;47.456;19.016;2023-12-22T00:25:32;98047.50;;;7.08;89.58
42297;BME280;72430;47.456;19.016;2023-12-22T00:28:34;98061.50;;;7.27;88.26
42297;BME280;72430;47.456;19.016;2023-12-22T00:31:36;98071.56;;;7.17;88.54
42297;BME280;72430;47.456;19.016;2023-12-22T00:34:37;98095.81;;;7.15;88.57
42297;BME280;72430;47.456;19.016;2023-12-22T00:37:39;98097.84;;;7.05;89.11
42297;BME280;72430;47.456;19.016;2023-12-22T00:40:41;98101.50;;;7.12;89.01
42297;BME280;72430;47.456;19.016;2023-12-22T00:43:43;98091.66;;;7.12;89.25
42297;BME280;72430;47.456;19.016;2023-12-22T00:46:45;98085.44;;;7.12;89.97
42297;BME280;72430;47.456;19.016;2023-12-22T00:49:47;98099.63;;;7.21;89.72
42297;BME280;72430;47.456;19.016;2023-12-22T00:52:49;98091.50;;;7.06;91.00
42297;BME280;72430;47.456;19.016;2023-12-22T00:55:51;98100.19;;;7.08;91.06
42297;BME280;72430;47.456;19.016;2023-12-22T00:58:53;98122.75;;;7.14;90.97
42297;BME280;72430;47.456;19.016;2023-12-22T01:02:05;98141.78;;;7.19;91.01
42297;BME280;72430;47.456;19.016;2023-12-22T01:05:07;98135.09;;;7.15;91.22
42297;BME280;72430;47.456;19.016;2023-12-22T01:08:09;98059.22;;;7.07;91.92
42297;BME280;72430;47.456;19.016;2023-12-22T01:11:12;98033.09;;;7.18;91.03
42297;BME280;72430;47.456;19.016;2023-12-22T01:14:13;98062.88;;;7.15;91.40
42297;BME280;72430;47.456;19.016;2023-12-22T01:17:15;98063.50;;;7.25;90.86
42297;BME280;72430;47.456;19.016;2023-12-22T01:20:17;98083.28;;;7.16;91.49
42297;BME280;72430;47.456;19.016;2023-12-22T01:23:19;98073.88;;;7.20;91.29
42297;BME280;72430;47.456;19.016;2023-12-22T01:26:21;98083.09;;;7.25;90.85
42297;BME280;72430;47.456;19.016;2023-12-22T01:29:23;98088.94;;;7.21;91.09
42297;BME280;72430;47.456;19.016;2023-12-22T01:32:25;98096.19;;;7.04;92.07
42297;BME280;72430;47.456;19.016;2023-12-22T01:35:27;98093.78;;;7.25;90.53
42297;BME280;72430;47.456;19.016;2023-12-22T01:38:30;98088.94;;;7.21;90.76
42297;BME280;72430;47.456;19.016;2023-12-22T01:41:31;98088.28;;;7.19;90.16
42297;BME280;72430;47.456;19.016;2023-12-22T01:44:33;98088.75;;;7.22;90.05
42297;BME280;72430;47.456;19.016;2023-12-22T01:47:36;98077.09;;;7.15;90.39
42297;BME280;72430;47.456;19.016;2023-12-22T01:50:38;98074.78;;;7.04;89.79
42297;BME280;72430;47.456;19.016;2023-12-22T01:53:41;98086.28;;;7.12;89.87
42297;BME280;72430;47.456;19.016;2023-12-22T01:56:43;98091.00;;;7.10;89.64
42297;BME280;72430;47.456;19.016;2023-12-22T01:59:46;98080.94;;;7.12;88.92
42297;BME280;72430;47.456;19.016;2023-12-22T02:02:50;98063.75;;;7.07;88.61
42297;BME280;72430;47.456;19.016;2023-12-22T02:05:51;98031.66;;;6.98;87.92
42297;BME280;72430;47.456;19.016;2023-12-22T02:08:53;98009.56;;;7.05;87.50
42297;BME280;72430;47.456;19.016;2023-12-22T02:11:55;98009.34;;;7.15;86.74
42297;BME280;72430;47.456;19.016;2023-12-22T02:14:57;98004.91;;;7.07;86.33
42297;BME280;72430;47.456;19.016;2023-12-22T02:18:24;98009.75;;;7.03;87.25
42297;BME280;72430;47.456;19.016;2023-12-22T02:21:28;97997.84;;;7.14;86.24
42297;BME280;72430;47.456;19.016;2023-12-22T02:24:30;97983.13;;;7.10;86.91
42297;BME280;72430;47.456;19.016;2023-12-22T02:27:44;98009.72;;;7.11;86.62
42297;BME280;72430;47.456;19.016;2023-12-22T02:31:02;98004.41;;;7.03;87.01
42297;BME280;72430;47.456;19.016;2023-12-22T02:34:12;97963.78;;;6.99;87.29
42297;BME280;72430;47.456;19.016;2023-12-22T02:37:18;98004.25;;;6.96;86.91
42297;BME280;72430;47.456;19.016;2023-12-22T02:40:21;98027.50;;;6.96;87.24
42297;BME280;72430;47.456;19.016;2023-12-22T02:43:24;98042.56;;;6.89;87.69
42297;BME280;72430;47.456;19.016;2023-12-22T02:46:26;98062.94;;;6.98;87.05
42297;BME280;72430;47.456;19.016;2023-12-22T02:49:28;98065.63;;;6.98;87.38
42297;BME280;72430;47.456;19.016;2023-12-22T02:52:29;98075.31;;;6.99;87.39
42297;BME280;72430;47.456;19.016;2023-12-22T02:55:34;98077.47;;;7.04;86.85
42297;BME280;72430;47.456;19.016;2023-12-22T02:58:36;98037.53;;;6.94;87.23
42297;BME280;72430;47.456;19.016;2023-12-22T03:01:38;98023.63;;;7.07;85.93
42297;BME280;72430;47.456;19.016;2023-12-22T03:04:40;98018.13;;;7.00;86.14
42297;BME280;72430;47.456;19.016;2023-12-22T03:07:42;98026.47;;;6.97;85.54
42297;BME280;72430;47.456;19.016;2023-12-22T03:10:44;98032.84;;;6.96;85.46
42297;BME280;72430;47.456;19.016;2023-12-22T03:13:46;98040.03;;;6.95;85.99
42297;BME280;72430;47.456;19.016;2023-12-22T03:16:47;98056.63;;;6.82;86.03
42297;BME280;72430;47.456;19.016;2023-12-22T03:19:49;98059.13;;;6.76;85.79
42297;BME280;72430;47.456;19.016;2023-12-22T03:22:51;98054.16;;;6.72;85.86
42297;BME280;72430;47.456;19.016;2023-12-22T03:25:53;98053.97;;;6.66;85.75
42297;BME280;72430;47.456;19.016;2023-12-22T03:28:55;98093.75;;;6.44;86.76
42297;BME280;72430;47.456;19.016;2023-12-22T03:31:57;98076.56;;;6.38;86.91
42297;BME280;72430;47.456;19.016;2023-12-22T03:34:59;98098.78;;;6.39;86.14
42297;BME280;72430;47.456;19.016;2023-12-22T03:38:01;98094.41;;;6.38;85.69
42297;BME280;72430;47.456;19.016;2023-12-22T03:41:03;98091.59;;;6.48;85.12
42297;BME280;72430;47.456;19.016;2023-12-22T03:44:05;98090.94;;;6.37;84.74
42297;BME280;72430;47.456;19.016;2023-12-22T03:47:06;98093.09;;;6.34;84.34
42297;BME280;72430;47.456;19.016;2023-12-22T03:50:09;98089.94;;;6.38;82.26
42297;BME280;72430;47.456;19.016;2023-12-22T03:53:11;98105.97;;;6.30;80.17
42297;BME280;72430;47.456;19.016;2023-12-22T03:56:13;98112.81;;;6.33;79.07
42297;BME280;72430;47.456;19.016;2023-12-22T03:59:14;98126.81;;;6.26;78.83
42297;BME280;72430;47.456;19.016;2023-12-22T04:02:20;98137.66;;;6.16;77.70
42297;BME280;72430;47.456;19.016;2023-12-22T04:05:22;98137.00;;;6.23;78.34
42297;BME280;72430;47.456;19.016;2023-12-22T04:08:23;98132.84;;;6.28;75.78
42297;BME280;72430;47.456;19.016;2023-12-22T04:11:25;98133.84;;;6.27;76.16
42297;BME280;72430;47.456;19.016;2023-12-22T04:14:27;98150.69;;;6.28;74.44
42297;BME280;72430;47.456;19.016;2023-12-22T04:17:29;98144.31;;;6.04;76.15
42297;BME280;72430;47.456;19.016;2023-12-22T04:20:31;98143.84;;;6.17;73.34
42297;BME280;72430;47.456;19.016;2023-12-22T04:23:33;98146.38;;;6.27;72.49
42297;BME280;72430;47.456;19.016;2023-12-22T04:26:35;98147.03;;;6.21;70.80
42297;BME280;72430;47.456;19.016;2023-12-22T04:29:37;98165.41;;;6.24;69.97
42297;BME280;72430;47.456;19.016;2023-12-22T04:32:39;98165.56;;;6.30;69.71
42297;BME280;72430;47.456;19.016;2023-12-22T04:35:41;98176.75;;;6.26;70.00
42297;BME280;72430;47.456;19.016;2023-12-22T04:38:42;98161.22;;;6.21;69.96
42297;BME280;72430;47.456;19.016;2023-12-22T04:41:44;98154.84;;;6.14;71.07
42297;BME280;72430;47.456;19.016;2023-12-22T04:44:46;98148.34;;;6.08;69.54
42297;BME280;72430;47.456;19.016;2023-12-22T04:47:48;98154.19;;;6.03;70.88
42297;BME280;72430;47.456;19.016;2023-12-22T04:50:50;98150.78;;;5.93;71.13
42297;BME280;72430;47.456;19.016;2023-12-22T04:53:52;98162.47;;;5.92;70.08
42297;BME280;72430;47.456;19.016;2023-12-22T04:56:54;98175.75;;;5.75;72.00
42297;BME280;72430;47.456;19.016;2023-12-22T04:59:56;98174.25;;;5.81;70.97
42297;BME280;72430;47.456;19.016;2023-12-22T05:02:57;98172.94;;;5.85;71.25
42297;BME280;72430;47.456;19.016;2023-12-22T05:05:59;98192.41;;;5.69;68.68
42297;BME280;72430;47.456;19.016;2023-12-22T05:09:01;98188.78;;;5.78;70.32
42297;BME280;72430;47.456;19.016;2023-12-22T05:12:04;98205.44;;;5.72;69.65
42297;BME280;72430;47.456;19.016;2023-12-22T05:15:06;98208.47;;;5.77;69.08
42297;BME280;72430;47.456;19.016;2023-12-22T05:18:08;98215.00;;;5.83;68.97
42297;BME280;72430;47.456;19.016;2023-12-22T05:21:12;98217.97;;;5.72;69.90
42297;BME280;72430;47.456;19.016;2023-12-22T05:24:15;98215.75;;;5.67;69.05
42297;BME280;72430;47.456;19.016;2023-12-22T05:27:18;98215.28;;;5.72;68.39
42297;BME280;72430;47.456;19.016;2023-12-22T05:30:20;98229.97;;;5.76;68.45
42297;BME280;72430;47.456;19.016;2023-12-22T05:33:22;98231.97;;;5.74;68.80
42297;BME280;72430;47.456;19.016;2023-12-22T05:36:24;98231.25;;;5.63;69.17
42297;BME280;72430;47.456;19.016;2023-12-22T05:39:27;98225.41;;;5.60;68.51
42297;BME280;72430;47.456;19.016;2023-12-22T05:42:29;98226.75;;;5.64;68.01
42297;BME280;72430;47.456;19.016;2023-12-22T05:45:30;98227.25;;;5.59;67.39
42297;BME280;72430;47.456;19.016;2023-12-22T05:48:34;98230.50;;;5.45;66.88
42297;BME280;72430;47.456;19.016;2023-12-22T05:51:39;98243.03;;;5.53;66.72
42297;BME280;72430;47.456;19.016;2023-12-22T05:54:42;98246.56;;;5.53;65.01
42297;BME280;72430;47.456;19.016;2023-12-22T05:57:43;98254.25;;;5.56;64.81
42297;BME280;72430;47.456;19.016;2023-12-22T06:00:45;98261.59;;;5.54;64.82
42297;BME280;72430;47.456;19.016;2023-12-22T06:03:47;98255.34;;;5.45;65.25
42297;BME280;72430;47.456;19.016;2023-12-22T06:06:50;98262.41;;;5.55;63.32
42297;BME280;72430;47.456;19.016;2023-12-22T06:09:52;98266.78;;;5.56;62.45
42297;BME280;72430;47.456;19.016;2023-12-22T06:12:53;98280.94;;;5.56;63.61
42297;BME280;72430;47.456;19.016;2023-12-22T06:15:55;98294.13;;;5.58;63.23
42297;BME280;72430;47.456;19.016;2023-12-22T06:18:57;98306.72;;;5.47;61.90
42297;BME280;72430;47.456;19.016;2023-12-22T06:21:59;98320.75;;;5.49;62.44
42297;BME280;72430;47.456;19.016;2023-12-22T06:25:01;98328.94;;;5.48;61.34
42297;BME280;72430;47.456;19.016;2023-12-22T06:28:08;98332.38;;;5.40;61.27
42297;BME280;72430;47.456;19.016;2023-12-22T06:31:18;98339.44;;;5.49;61.07
42297;BME280;72430;47.456;19.016;2023-12-22T06:34:20;98344.47;;;5.53;59.69
42297;BME280;72430;47.456;19.016;2023-12-22T06:37:22;98342.50;;;5.36;60.90
42297;BME280;72430;47.456;19.016;2023-12-22T06:40:24;98341.94;;;5.51;61.03
42297;BME280;72430;47.456;19.016;2023-12-22T06:43:26;98340.91;;;5.44;59.84
42297;BME280;72430;47.456;19.016;2023-12-22T06:46:28;98331.97;;;5.53;59.74
42297;BME280;72430;47.456;19.016;2023-12-22T06:49:32;98326.44;;;5.55;58.70
42297;BME280;72430;47.456;19.016;2023-12-22T06:52:34;98334.78;;;5.51;59.72
42297;BME280;72430;47.456;19.016;2023-12-22T06:55:36;98343.78;;;5.50;56.93
42297;BME280;72430;47.456;19.016;2023-12-22T06:58:38;98342.41;;;5.64;58.47
42297;BME280;72430;47.456;19.016;2023-12-22T07:01:39;98341.53;;;5.64;58.25
42297;BME280;72430;47.456;19.016;2023-12-22T07:04:41;98354.75;;;5.66;57.04
42297;BME280;72430;47.456;19.016;2023-12-22T07:07:43;98362.06;;;5.63;57.98
42297;BME280;72430;47.456;19.016;2023-12-22T07:10:45;98354.75;;;5.47;56.97
42297;BME280;72430;47.456;19.016;2023-12-22T07:13:47;98368.38;;;5.62;57.15
42297;BME280;72430;47.456;19.016;2023-12-22T07:16:49;98367.09;;;5.48;56.51
42297;BME280;72430;47.456;19.016;2023-12-22T07:19:51;98363.94;;;5.71;57.72
42297;BME280;72430;47.456;19.016;2023-12-22T07:22:54;98373.00;;;5.78;56.06
42297;BME280;72430;47.456;19.016;2023-12-22T07:25:56;98375.91;;;5.67;56.46
42297;BME280;72430;47.456;19.016;2023-12-22T07:28:59;98373.56;;;5.82;56.26
42297;BME280;72430;47.456;19.016;2023-12-22T07:32:01;98373.59;;;5.90;56.18
42297;BME280;72430;47.456;19.016;2023-12-22T07:35:03;98357.25;;;5.94;56.40
42297;BME280;72430;47.456;19.016;2023-12-22T07:38:05;98376.78;;;5.94;55.83
42297;BME280;72430;47.456;19.016;2023-12-22T07:41:08;98369.41;;;5.88;55.81
42297;BME280;72430;47.456;19.016;2023-12-22T07:44:12;98373.13;;;5.95;55.67
42297;BME280;72430;47.456;19.016;2023-12-22T07:47:14;98375.81;;;6.22;56.31
42297;BME280;72430;47.456;19.016;2023-12-22T07:50:16;98380.44;;;6.46;55.79
42297;BME280;72430;47.456;19.016;2023-12-22T07:53:22;98375.59;;;6.50;57.44
42297;BME280;72430;47.456;19.016;2023-12-22T07:56:24;98390.50;;;6.61;55.90
42297;BME280;72430;47.456;19.016;2023-12-22T07:59:26;98396.28;;;6.91;56.36
42297;BME280;72430;47.456;19.016;2023-12-22T08:02:32;98389.88;;;7.43;56.18
42297;BME280;72430;47.456;19.016;2023-12-22T08:05:34;98398.03;;;7.50;54.80
42297;BME280;72430;47.456;19.016;2023-12-22T08:08:36;98390.53;;;7.54;56.54
42297;BME280;72430;47.456;19.016;2023-12-22T08:11:38;98398.69;;;8.02;55.80
42297;BME280;72430;47.456;19.016;2023-12-22T08:14:40;98399.44;;;8.44;54.34
42297;BME280;72430;47.456;19.016;2023-12-22T08:17:46;98378.47;;;8.88;52.10
42297;BME280;72430;47.456;19.016;2023-12-22T08:20:49;98367.53;;;9.44;52.96
42297;BME280;72430;47.456;19.016;2023-12-22T08:23:52;98377.91;;;10.09;50.05
42297;BME280;72430;47.456;19.016;2023-12-22T08:26:57;98378.72;;;10.40;50.19
42297;BME280;72430;47.456;19.016;2023-12-22T08:29:58;98374.50;;;10.97;49.42
42297;BME280;72430;47.456;19.016;2023-12-22T08:33:00;98375.56;;;11.18;48.29
42297;BME280;72430;47.456;19.016;2023-12-22T08:36:03;98376.91;;;11.07;46.50
42297;BME280;72430;47.456;19.016;2023-12-22T08:39:05;98371.78;;;11.34;46.91
42297;BME280;72430;47.456;19.016;2023-12-22T08:42:08;98407.06;;;11.39;45.07
42297;BME280;72430;47.456;19.016;2023-12-22T08:45:10;98385.75;;;11.88;45.69
42297;BME280;72430;47.456;19.016;2023-12-22T08:48:11;98379.25;;;12.04;45.99
42297;BME280;72430;47.456;19.016;2023-12-22T08:51:13;98377.84;;;12.93;44.94
42297;BME280;72430;47.456;19.016;2023-12-22T08:54:15;98379.81;;;13.33;42.49
42297;BME280;72430;47.456;19.016;2023-12-22T08:57:17;98380.88;;;13.45;43.92
42297;BME280;72430;47.456;19.016;2023-12-22T09:00:19;98400.19;;;12.38;41.49
42297;BME280;72430;47.456;19.016;2023-12-22T09:03:21;98392.88;;;13.15;43.49
42297;BME280;72430;47.456;19.016;2023-12-22T09:06:24;98388.53;;;12.30;42.58
42297;BME280;72430;47.456;19.016;2023-12-22T09:09:26;98396.81;;;13.20;41.85
42297;BME280;72430;47.456;19.016;2023-12-22T09:12:29;98401.69;;;13.45;42.44
42297;BME280;72430;47.456;19.016;2023-12-22T09:15:31;98391.31;;;14.22;41.04
42297;BME280;72430;47.456;19.016;2023-12-22T09:18:33;98396.72;;;15.02;42.15
42297;BME280;72430;47.456;19.016;2023-12-22T09:21:36;98395.69;;;15.03;39.00
42297;BME280;72430;47.456;19.016;2023-12-22T09:24:37;98383.16;;;15.41;39.56
42297;BME280;72430;47.456;19.016;2023-12-22T09:27:40;98381.16;;;15.29;39.42
42297;BME280;72430;47.456;19.016;2023-12-22T09:30:42;98378.63;;;16.18;37.81
42297;BME280;72430;47.456;19.016;2023-12-22T09:33:44;98379.44;;;15.67;36.50
42297;BME280;72430;47.456;19.016;2023-12-22T09:36:45;98372.16;;;15.93;36.93
42297;BME280;72430;47.456;19.016;2023-12-22T09:39:47;98376.69;;;16.44;36.27
42297;BME280;72430;47.456;19.016;2023-12-22T09:42:54;98365.84;;;16.81;36.80
42297;BME280;72430;47.456;19.016;2023-12-22T09:45:58;98371.47;;;16.23;35.41
42297;BME280;72430;47.456;19.016;2023-12-22T09:49:01;98374.34;;;16.47;35.82
42297;BME280;72430;47.456;19.016;2023-12-22T09:52:04;98373.13;;;15.74;36.08
42297;BME280;72430;47.456;19.016;2023-12-22T09:55:08;98381.94;;;16.20;34.19
42297;BME280;72430;47.456;19.016;2023-12-22T09:58:15;98389.81;;;15.77;35.10
42297;BME280;72430;47.456;19.016;2023-12-22T10:01:19;98404.84;;;14.16;36.15
42297;BME280;72430;47.456;19.016;2023-12-22T10:04:24;98388.38;;;15.42;35.69
42297;BME280;72430;47.456;19.016;2023-12-22T10:07:26;98384.16;;;16.04;35.19
42297;BME280;72430;47.456;19.016;2023-12-22T10:10:30;98372.09;;;16.44;35.03
42297;BME280;72430;47.456;19.016;2023-12-22T10:13:33;98379.56;;;16.30;33.89
42297;BME280;72430;47.456;19.016;2023-12-22T10:16:38;98370.25;;;15.68;34.36
42297;BME280;72430;47.456;19.016;2023-12-22T10:19:40;98381.25;;;14.50;35.68
42297;BME280;72430;47.456;19.016;2023-12-22T10:22:42;98389.03;;;13.52;37.94
42297;BME280;72430;47.456;19.016;2023-12-22T10:25:45;98390.13;;;12.95;38.98
42297;BME280;72430;47.456;19.016;2023-12-22T10:28:48;98388.72;;;12.64;40.53
42297;BME280;72430;47.456;19.016;2023-12-22T10:31:54;98370.56;;;12.86;40.12
42297;BME280;72430;47.456;19.016;2023-12-22T10:34:56;98378.38;;;13.37;39.30
42297;BME280;72430;47.456;19.016;2023-12-22T10:38:01;98369.66;;;14.09;37.96
42297;BME280;72430;47.456;19.016;2023-12-22T10:41:06;98350.28;;;14.26;38.39
42297;BME280;72430;47.456;19.016;2023-12-22T10:44:11;98348.94;;;12.38;39.93
42297;BME280;72430;47.456;19.016;2023-12-22T10:47:13;98325.19;;;13.78;38.36
42297;BME280;72430;47.456;19.016;2023-12-22T10:50:15;98351.94;;;13.25;39.67
42297;BME280;72430;47.456;19.016;2023-12-22T10:53:17;98346.47;;;14.54;39.35
42297;BME280;72430;47.456;19.016;2023-12-22T10:56:20;98333.06;;;14.00;38.60
42297;BME280;72430;47.456;19.016;2023-12-22T10:59:23;98353.25;;;13.77;38.93
42297;BME280;72430;47.456;19.016;2023-12-22T11:02:32;98348.81;;;14.96;36.90
42297;BME280;72430;47.456;19.016;2023-12-22T11:05:36;98352.09;;;15.43;36.03
42297;BME280;72430;47.456;19.016;2023-12-22T11:08:40;98364.91;;;16.87;34.37
42297;BME280;72430;47.456;19.016;2023-12-22T11:11:43;98352.59;;;17.03;32.54
42297;BME280;72430;47.456;19.016;2023-12-22T11:14:46;98361.41;;;17.60;32.78
42297;BME280;72430;47.456;19.016;2023-12-22T11:17:56;98357.88;;;18.55;31.45
42297;BME280;72430;47.456;19.016;2023-12-22T11:21:03;98359.34;;;17.43;33.54
42297;BME280;72430;47.456;19.016;2023-12-22T11:24:08;98354.00;;;17.91;31.65
42297;BME280;72430;47.456;19.016;2023-12-22T11:27:11;98342.19;;;18.86;31.26
42297;BME280;72430;47.456;19.016;2023-12-22T11:30:14;98332.69;;;18.24;31.69
42297;BME280;72430;47.456;19.016;2023-12-22T11:33:16;98357.53;;;16.76;32.04
42297;BME280;72430;47.456;19.016;2023-12-22T11:36:19;98358.28;;;15.51;33.16
42297;BME280;72430;47.456;19.016;2023-12-22T11:39:20;98356.69;;;14.45;35.03
42297;BME280;72430;47.456;19.016;2023-12-22T11:42:28;98364.47;;;14.01;35.49
42297;BME280;72430;47.456;19.016;2023-12-22T11:45:33;98360.28;;;13.31;36.17
42297;BME280;72430;47.456;19.016;2023-12-22T11:48:37;98351.28;;;13.03;37.51
42297;BME280;72430;47.456;19.016;2023-12-22T11:51:39;98356.78;;;12.74;37.37
42297;BME280;72430;47.456;19.016;2023-12-22T11:57:49;98388.25;;;11.03;39.76
42297;BME280;72430;47.456;19.016;2023-12-22T12:00:52;98379.47;;;10.18;41.16
42297;BME280;72430;47.456;19.016;2023-12-22T12:03:59;98346.56;;;11.42;40.45
42297;BME280;72430;47.456;19.016;2023-12-22T12:07:42;98338.75;;;11.47;39.96
42297;BME280;72430;47.456;19.016;2023-12-22T12:13:52;98376.94;;;10.92;41.13
42297;BME280;72430;47.456;19.016;2023-12-22T12:17:04;98366.50;;;10.37;42.98
42297;BME280;72430;47.456;19.016;2023-12-22T12:20:08;98379.59;;;10.55;43.23
42297;BME280;72430;47.456;19.016;2023-12-22T12:23:11;98377.13;;;10.91;42.86
42297;BME280;72430;47.456;19.016;2023-12-22T12:26:13;98367.22;;;10.31;42.64
42297;BME280;72430;47.456;19.016;2023-12-22T12:29:16;98352.81;;;9.78;43.54
42297;BME280;72430;47.456;19.016;2023-12-22T12:32:23;98374.34;;;9.93;44.38
42297;BME280;72430;47.456;19.016;2023-12-22T12:35:27;98380.06;;;9.52;44.90
42297;BME280;72430;47.456;19.016;2023-12-22T12:38:58;98384.88;;;8.86;46.07
42297;BME280;72430;47.456;19.016;2023-12-22T12:42:07;98405.78;;;8.59;47.16
42297;BME280;72430;47.456;19.016;2023-12-22T12:45:10;98396.00;;;8.18;48.59
42297;BME280;72430;47.456;19.016;2023-12-22T12:48:16;98392.00;;;8.06;49.09
42297;BME280;72430;47.456;19.016;2023-12-22T12:51:19;98390.31;;;8.22;49.34
42297;BME280;72430;47.456;19.016;2023-12-22T12:54:20;98379.16;;;8.41;48.44
42297;BME280;72430;47.456;19.016;2023-12-22T12:57:22;98392.28;;;8.19;49.77
42297;BME280;72430;47.456;19.016;2023-12-22T13:00:29;98404.56;;;7.97;50.96
42297;BME280;72430;47.456;19.016;2023-12-22T13:03:31;98398.03;;;7.91;51.23
42297;BME280;72430;47.456;19.016;2023-12-22T13:06:33;98383.47;;;7.94;52.95
42297;BME280;72430;47.456;19.016;2023-12-22T13:09:35;98395.72;;;7.55;54.76
42297;BME280;72430;47.456;19.016;2023-12-22T13:12:38;98405.25;;;7.49;55.13
42297;BME280;72430;47.456;19.016;2023-12-22T13:15:40;98429.31;;;7.24;57.02
42297;BME280;72430;47.456;19.016;2023-12-22T13:18:44;98410.75;;;7.56;56.83
42297;BME280;72430;47.456;19.016;2023-12-22T13:21:46;98401.72;;;8.72;55.87
42297;BME280;72430;47.456;19.016;2023-12-22T13:24:56;98393.41;;;8.42;54.29
42297;BME280;72430;47.456;19.016;2023-12-22T13:28:01;98394.84;;;8.69;53.25
42297;BME280;72430;47.456;19.016;2023-12-22T13:31:10;98406.31;;;8.46;52.76
42297;BME280;72430;47.456;19.016;2023-12-22T13:34:14;98387.22;;;9.13;52.15
42297;BME280;72430;47.456;19.016;2023-12-22T13:37:17;98363.88;;;10.14;49.35
42297;BME280;72430;47.456;19.016;2023-12-22T13:40:19;98358.50;;;10.29;49.14
42297;BME280;72430;47.456;19.016;2023-12-22T13:43:21;98362.50;;;10.63;47.71
42297;BME280;72430;47.456;19.016;2023-12-22T13:46:26;98357.75;;;10.05;47.20
42297;BME280;72430;47.456;19.016;2023-12-22T13:49:33;98386.16;;;9.69;48.24
42297;BME280;72430;47.456;19.016;2023-12-22T13:52:35;98370.78;;;9.39;47.83
42297;BME280;72430;47.456;19.016;2023-12-22T13:55:37;98367.50;;;9.06;49.42
42297;BME280;72430;47.456;19.016;2023-12-22T13:58:47;98368.03;;;8.69;49.07
42297;BME280;72430;47.456;19.016;2023-12-22T14:01:49;98368.75;;;8.55;50.00
42297;BME280;72430;47.456;19.016;2023-12-22T14:04:51;98361.53;;;7.90;50.84
42297;BME280;72430;47.456;19.016;2023-12-22T14:07:53;98380.59;;;8.12;50.08
42297;BME280;72430;47.456;19.016;2023-12-22T14:10:56;98403.56;;;7.82;50.58
42297;BME280;72430;47.456;19.016;2023-12-22T14:13:58;98444.66;;;7.06;55.70
42297;BME280;72430;47.456;19.016;2023-12-22T14:17:00;98449.38;;;7.20;55.68
42297;BME280;72430;47.456;19.016;2023-12-22T14:20:02;98463.22;;;6.11;65.00
42297;BME280;72430;47.456;19.016;2023-12-22T14:23:06;98453.97;;;5.43;67.81
42297;BME280;72430;47.456;19.016;2023-12-22T14:26:12;98437.56;;;5.19;70.98
42297;BME280;72430;47.456;19.016;2023-12-22T14:29:14;98439.09;;;5.40;67.66
42297;BME280;72430;47.456;19.016;2023-12-22T14:32:16;98456.25;;;5.37;67.06
42297;BME280;72430;47.456;19.016;2023-12-22T14:35:20;98429.66;;;5.28;67.77
42297;BME280;72430;47.456;19.016;2023-12-22T14:38:23;98407.78;;;5.24;70.41
42297;BME280;72430;47.456;19.016;2023-12-22T14:41:24;98423.19;;;5.30;69.62
42297;BME280;72430;47.456;19.016;2023-12-22T14:44:26;98420.19;;;5.33;69.35
42297;BME280;72430;47.456;19.016;2023-12-22T14:47:28;98444.94;;;5.26;70.40
42297;BME280;72430;47.456;19.016;2023-12-22T14:50:31;98473.38;;;5.17;68.90
42297;BME280;72430;47.456;19.016;2023-12-22T14:53:34;98484.84;;;4.99;71.20
42297;BME280;72430;47.456;19.016;2023-12-22T14:56:38;98494.88;;;4.87;70.70
42297;BME280;72430;47.456;19.016;2023-12-22T14:59:40;98483.34;;;4.87;72.39
42297;BME280;72430;47.456;19.016;2023-12-22T15:02:42;98487.22;;;5.02;71.57
42297;BME280;72430;47.456;19.016;2023-12-22T15:05:43;98497.44;;;5.07;70.28
42297;BME280;72430;47.456;19.016;2023-12-22T15:08:45;98488.34;;;5.00;71.72
42297;BME280;72430;47.456;19.016;2023-12-22T15:11:48;98473.22;;;4.90;70.07
42297;BME280;72430;47.456;19.016;2023-12-22T15:14:50;98477.19;;;5.14;67.80
42297;BME280;72430;47.456;19.016;2023-12-22T15:17:52;98446.88;;;5.15;69.83
42297;BME280;72430;47.456;19.016;2023-12-22T15:20:54;98431.28;;;5.10;68.94
42297;BME280;72430;47.456;19.016;2023-12-22T15:23:56;98455.69;;;5.16;68.76
42297;BME280;72430;47.456;19.016;2023-12-22T15:26:57;98484.59;;;5.20;67.97
42297;BME280;72430;47.456;19.016;2023-12-22T15:29:59;98496.84;;;5.13;67.42
42297;BME280;72430;47.456;19.016;2023-12-22T15:33:01;98517.78;;;5.08;66.89
42297;BME280;72430;47.456;19.016;2023-12-22T15:36:03;98499.75;;;5.20;66.53
42297;BME280;72430;47.456;19.016;2023-12-22T15:39:05;98511.03;;;5.14;66.27
42297;BME280;72430;47.456;19.016;2023-12-22T15:42:07;98515.91;;;5.18;65.75
42297;BME280;72430;47.456;19.016;2023-12-22T15:45:10;98519.81;;;5.24;65.59
42297;BME280;72430;47.456;19.016;2023-12-22T15:48:14;98513.78;;;5.22;65.95
42297;BME280;72430;47.456;19.016;2023-12-22T15:51:16;98493.56;;;5.01;68.27
42297;BME280;72430;47.456;19.016;2023-12-22T15:54:21;98511.63;;;5.07;68.05
42297;BME280;72430;47.456;19.016;2023-12-22T15:57:23;98533.56;;;5.01;66.95
42297;BME280;72430;47.456;19.016;2023-12-22T16:00:25;98551.09;;;5.04;68.80
42297;BME280;72430;47.456;19.016;2023-12-22T16:03:29;98556.44;;;5.04;69.21
42297;BME280;72430;47.456;19.016;2023-12-22T16:06:31;98545.94;;;4.92;68.60
42297;BME280;72430;47.456;19.016;2023-12-22T16:09:36;98538.75;;;4.93;68.93
42297;BME280;72430;47.456;19.016;2023-12-22T16:12:38;98540.66;;;5.10;68.02